Terminal Aerodrome Forecast
Issued by NWS Albany, NY

Home | Current Version | Previous Version | Text Only | Print | Product List | Glossary On
Versions: 1 2 3 4 5 6 7 8 9 10 11 12 13 14 15 16 17 18 19 20 21 22 23
000
FTUS41 KALY 040447 AAB
TAFGFL
TAF AMD
KGFL 040447Z 0405/0424 21010KT 5SM BR OVC015
      TEMPO 0405/0408 2SM -FZDZ BR BKN009 OVC015
     FM040800 21010KT 3SM BR VCSH OVC015
     FM041100 25008G14KT P6SM OVC040
     FM041500 25008G14KT P6SM BKN080=

USA.gov is the U.S. government's official web portal to all federal, state and local government web resources and services.